sensor_id;sensor_type;location;lat;lon;timestamp;P1;durP1;ratioP1;P2;durP2;ratioP2
50010;SDS011;35899;50.352;19.390;2022-12-04T00:02:25;73.52;;;31.70;;
50010;SDS011;35899;50.352;19.390;2022-12-04T00:04:52;76.10;;;31.40;;
50010;SDS011;35899;50.352;19.390;2022-12-04T00:07:18;78.85;;;31.97;;
50010;SDS011;35899;50.352;19.390;2022-12-04T00:09:45;76.60;;;30.68;;
50010;SDS011;35899;50.352;19.390;2022-12-04T00:12:11;73.05;;;28.00;;
50010;SDS011;35899;50.352;19.390;2022-12-04T00:14:37;74.15;;;29.45;;
50010;SDS011;35899;50.352;19.390;2022-12-04T00:17:04;74.22;;;29.07;;
50010;SDS011;35899;50.352;19.390;2022-12-04T00:19:30;75.03;;;30.23;;
50010;SDS011;35899;50.352;19.390;2022-12-04T00:21:56;71.47;;;27.25;;
50010;SDS011;35899;50.352;19.390;2022-12-04T00:24:23;72.20;;;27.82;;
50010;SDS011;35899;50.352;19.390;2022-12-04T00:26:49;76.92;;;29.15;;
50010;SDS011;35899;50.352;19.390;2022-12-04T00:29:16;77.12;;;30.50;;
50010;SDS011;35899;50.352;19.390;2022-12-04T00:31:42;71.07;;;28.57;;
50010;SDS011;35899;50.352;19.390;2022-12-04T00:34:09;73.57;;;28.47;;
50010;SDS011;35899;50.352;19.390;2022-12-04T00:36:36;73.17;;;29.70;;
50010;SDS011;35899;50.352;19.390;2022-12-04T00:39:03;73.47;;;27.67;;
50010;SDS011;35899;50.352;19.390;2022-12-04T00:41:30;68.33;;;28.23;;
50010;SDS011;35899;50.352;19.390;2022-12-04T00:43:58;69.20;;;27.75;;
50010;SDS011;35899;50.352;19.390;2022-12-04T00:46:25;68.85;;;27.22;;
50010;SDS011;35899;50.352;19.390;2022-12-04T00:48:52;71.28;;;27.10;;
50010;SDS011;35899;50.352;19.390;2022-12-04T00:51:20;65.62;;;26.33;;
50010;SDS011;35899;50.352;19.390;2022-12-04T00:53:49;65.20;;;26.65;;
50010;SDS011;35899;50.352;19.390;2022-12-04T00:56:18;65.55;;;24.92;;
50010;SDS011;35899;50.352;19.390;2022-12-04T00:58:50;67.00;;;25.35;;
50010;SDS011;35899;50.352;19.390;2022-12-04T01:01:18;72.82;;;26.50;;
50010;SDS011;35899;50.352;19.390;2022-12-04T01:03:46;65.15;;;24.75;;
50010;SDS011;35899;50.352;19.390;2022-12-04T01:06:20;67.37;;;26.12;;
50010;SDS011;35899;50.352;19.390;2022-12-04T01:08:56;67.53;;;27.55;;
50010;SDS011;35899;50.352;19.390;2022-12-04T01:11:24;66.37;;;26.17;;
50010;SDS011;35899;50.352;19.390;2022-12-04T01:13:53;63.98;;;25.08;;
50010;SDS011;35899;50.352;19.390;2022-12-04T01:16:21;67.97;;;26.12;;
50010;SDS011;35899;50.352;19.390;2022-12-04T01:18:54;64.80;;;26.00;;
50010;SDS011;35899;50.352;19.390;2022-12-04T01:21:21;73.10;;;27.27;;
50010;SDS011;35899;50.352;19.390;2022-12-04T01:23:48;67.42;;;26.85;;
50010;SDS011;35899;50.352;19.390;2022-12-04T01:26:15;70.37;;;27.35;;
50010;SDS011;35899;50.352;19.390;2022-12-04T01:28:41;64.97;;;25.95;;
50010;SDS011;35899;50.352;19.390;2022-12-04T01:31:08;69.45;;;26.82;;
50010;SDS011;35899;50.352;19.390;2022-12-04T01:33:41;67.75;;;26.33;;
50010;SDS011;35899;50.352;19.390;2022-12-04T01:36:10;66.10;;;24.47;;
50010;SDS011;35899;50.352;19.390;2022-12-04T01:38:39;66.17;;;26.27;;
50010;SDS011;35899;50.352;19.390;2022-12-04T01:41:08;63.30;;;25.40;;
50010;SDS011;35899;50.352;19.390;2022-12-04T01:43:36;67.42;;;26.87;;
50010;SDS011;35899;50.352;19.390;2022-12-04T01:46:04;65.80;;;26.57;;
50010;SDS011;35899;50.352;19.390;2022-12-04T01:48:32;67.67;;;26.87;;
50010;SDS011;35899;50.352;19.390;2022-12-04T01:51:08;73.15;;;27.80;;
50010;SDS011;35899;50.352;19.390;2022-12-04T01:53:48;69.17;;;25.88;;
50010;SDS011;35899;50.352;19.390;2022-12-04T01:56:17;68.40;;;27.50;;
50010;SDS011;35899;50.352;19.390;2022-12-04T01:58:47;67.97;;;25.05;;
50010;SDS011;35899;50.352;19.390;2022-12-04T02:01:17;68.52;;;27.02;;
50010;SDS011;35899;50.352;19.390;2022-12-04T02:03:44;66.75;;;25.92;;
50010;SDS011;35899;50.352;19.390;2022-12-04T02:06:10;71.15;;;26.45;;
50010;SDS011;35899;50.352;19.390;2022-12-04T02:08:36;65.97;;;24.32;;
50010;SDS011;35899;50.352;19.390;2022-12-04T02:14:15;76.02;;;25.92;;
50010;SDS011;35899;50.352;19.390;2022-12-04T02:16:44;75.85;;;26.60;;
50010;SDS011;35899;50.352;19.390;2022-12-04T02:25:51;71.72;;;26.82;;
50010;SDS011;35899;50.352;19.390;2022-12-04T02:28:24;69.17;;;25.77;;
50010;SDS011;35899;50.352;19.390;2022-12-04T02:31:12;69.65;;;26.20;;
50010;SDS011;35899;50.352;19.390;2022-12-04T02:33:49;72.35;;;25.05;;
50010;SDS011;35899;50.352;19.390;2022-12-04T02:38:51;73.65;;;27.05;;
50010;SDS011;35899;50.352;19.390;2022-12-04T02:41:21;73.42;;;24.40;;
50010;SDS011;35899;50.352;19.390;2022-12-04T02:43:55;71.82;;;23.67;;
50010;SDS011;35899;50.352;19.390;2022-12-04T02:46:27;73.67;;;25.37;;
50010;SDS011;35899;50.352;19.390;2022-12-04T02:49:00;75.30;;;24.82;;
50010;SDS011;35899;50.352;19.390;2022-12-04T02:51:29;72.25;;;24.80;;
50010;SDS011;35899;50.352;19.390;2022-12-04T02:53:58;72.92;;;25.65;;
50010;SDS011;35899;50.352;19.390;2022-12-04T02:56:40;73.87;;;25.85;;
50010;SDS011;35899;50.352;19.390;2022-12-04T02:59:14;77.15;;;25.90;;
50010;SDS011;35899;50.352;19.390;2022-12-04T03:01:44;73.60;;;25.25;;
50010;SDS011;35899;50.352;19.390;2022-12-04T03:04:17;73.30;;;24.07;;
50010;SDS011;35899;50.352;19.390;2022-12-04T03:06:48;71.15;;;24.30;;
50010;SDS011;35899;50.352;19.390;2022-12-04T03:09:29;68.35;;;23.67;;
50010;SDS011;35899;50.352;19.390;2022-12-04T03:12:09;69.00;;;23.27;;
50010;SDS011;35899;50.352;19.390;2022-12-04T03:14:38;70.40;;;24.87;;
50010;SDS011;35899;50.352;19.390;2022-12-04T03:17:13;68.07;;;24.30;;
50010;SDS011;35899;50.352;19.390;2022-12-04T03:19:47;72.47;;;25.30;;
50010;SDS011;35899;50.352;19.390;2022-12-04T03:22:17;67.30;;;22.75;;
50010;SDS011;35899;50.352;19.390;2022-12-04T03:24:50;67.53;;;23.05;;
50010;SDS011;35899;50.352;19.390;2022-12-04T03:32:33;66.45;;;21.70;;
50010;SDS011;35899;50.352;19.390;2022-12-04T03:35:22;66.07;;;22.52;;
50010;SDS011;35899;50.352;19.390;2022-12-04T03:37:59;79.03;;;24.47;;
50010;SDS011;35899;50.352;19.390;2022-12-04T03:40:36;72.40;;;24.15;;
50010;SDS011;35899;50.352;19.390;2022-12-04T03:43:13;71.82;;;23.40;;
50010;SDS011;35899;50.352;19.390;2022-12-04T03:45:48;84.90;;;23.80;;
50010;SDS011;35899;50.352;19.390;2022-12-04T03:48:53;75.42;;;22.17;;
50010;SDS011;35899;50.352;19.390;2022-12-04T03:51:28;80.25;;;23.27;;
50010;SDS011;35899;50.352;19.390;2022-12-04T03:54:07;63.73;;;20.02;;
50010;SDS011;35899;50.352;19.390;2022-12-04T03:56:41;76.10;;;22.25;;
50010;SDS011;35899;50.352;19.390;2022-12-04T03:59:13;69.62;;;21.52;;
50010;SDS011;35899;50.352;19.390;2022-12-04T04:01:47;70.10;;;20.55;;
50010;SDS011;35899;50.352;19.390;2022-12-04T04:04:21;74.80;;;22.52;;
50010;SDS011;35899;50.352;19.390;2022-12-04T04:06:49;58.23;;;20.70;;
50010;SDS011;35899;50.352;19.390;2022-12-04T04:09:20;90.30;;;22.37;;
50010;SDS011;35899;50.352;19.390;2022-12-04T04:12:09;66.77;;;20.57;;
50010;SDS011;35899;50.352;19.390;2022-12-04T04:14:49;92.22;;;21.75;;
50010;SDS011;35899;50.352;19.390;2022-12-04T04:17:24;75.83;;;21.73;;
50010;SDS011;35899;50.352;19.390;2022-12-04T04:19:59;59.18;;;20.77;;
50010;SDS011;35899;50.352;19.390;2022-12-04T04:22:29;61.68;;;19.80;;
50010;SDS011;35899;50.352;19.390;2022-12-04T04:24:57;86.15;;;21.48;;
50010;SDS011;35899;50.352;19.390;2022-12-04T04:27:49;71.70;;;20.00;;
50010;SDS011;35899;50.352;19.390;2022-12-04T04:30:17;67.72;;;21.35;;
50010;SDS011;35899;50.352;19.390;2022-12-04T04:32:45;53.87;;;19.50;;
50010;SDS011;35899;50.352;19.390;2022-12-04T04:40:43;51.05;;;18.90;;
50010;SDS011;35899;50.352;19.390;2022-12-04T04:43:34;48.87;;;19.48;;
50010;SDS011;35899;50.352;19.390;2022-12-04T04:48:41;55.17;;;19.20;;
50010;SDS011;35899;50.352;19.390;2022-12-04T04:53:41;53.13;;;18.62;;
50010;SDS011;35899;50.352;19.390;2022-12-04T04:56:14;59.53;;;20.02;;
50010;SDS011;35899;50.352;19.390;2022-12-04T04:58:41;66.10;;;19.17;;
50010;SDS011;35899;50.352;19.390;2022-12-04T05:01:12;49.53;;;17.50;;
50010;SDS011;35899;50.352;19.390;2022-12-04T05:06:08;43.78;;;16.40;;
50010;SDS011;35899;50.352;19.390;2022-12-04T05:08:35;54.38;;;17.62;;
50010;SDS011;35899;50.352;19.390;2022-12-04T05:11:02;45.23;;;17.32;;
50010;SDS011;35899;50.352;19.390;2022-12-04T05:13:30;52.73;;;18.65;;
50010;SDS011;35899;50.352;19.390;2022-12-04T05:15:58;47.05;;;17.55;;
50010;SDS011;35899;50.352;19.390;2022-12-04T05:18:27;47.75;;;17.27;;
50010;SDS011;35899;50.352;19.390;2022-12-04T05:20:55;44.55;;;16.48;;
50010;SDS011;35899;50.352;19.390;2022-12-04T05:23:22;54.13;;;18.05;;
50010;SDS011;35899;50.352;19.390;2022-12-04T05:25:50;47.88;;;17.48;;
50010;SDS011;35899;50.352;19.390;2022-12-04T05:28:25;48.23;;;18.25;;
50010;SDS011;35899;50.352;19.390;2022-12-04T05:31:00;53.25;;;17.15;;
50010;SDS011;35899;50.352;19.390;2022-12-04T05:33:25;47.65;;;17.25;;
50010;SDS011;35899;50.352;19.390;2022-12-04T05:35:58;53.17;;;17.60;;
50010;SDS011;35899;50.352;19.390;2022-12-04T05:38:29;44.40;;;16.75;;
50010;SDS011;35899;50.352;19.390;2022-12-04T05:40:58;46.60;;;17.27;;
50010;SDS011;35899;50.352;19.390;2022-12-04T05:43:27;45.90;;;17.20;;
50010;SDS011;35899;50.352;19.390;2022-12-04T05:45:54;44.75;;;15.65;;
50010;SDS011;35899;50.352;19.390;2022-12-04T05:48:20;46.58;;;16.85;;
50010;SDS011;35899;50.352;19.390;2022-12-04T05:50:46;42.40;;;15.48;;
50010;SDS011;35899;50.352;19.390;2022-12-04T05:53:13;46.95;;;17.52;;
50010;SDS011;35899;50.352;19.390;2022-12-04T05:55:39;44.98;;;16.10;;
50010;SDS011;35899;50.352;19.390;2022-12-04T05:58:05;44.35;;;16.77;;
50010;SDS011;35899;50.352;19.390;2022-12-04T06:00:32;51.77;;;16.62;;
50010;SDS011;35899;50.352;19.390;2022-12-04T06:02:58;50.25;;;17.50;;
50010;SDS011;35899;50.352;19.390;2022-12-04T06:05:25;56.85;;;17.75;;
50010;SDS011;35899;50.352;19.390;2022-12-04T06:07:51;50.80;;;15.93;;
50010;SDS011;35899;50.352;19.390;2022-12-04T06:10:18;40.85;;;15.48;;
50010;SDS011;35899;50.352;19.390;2022-12-04T06:12:44;46.60;;;16.75;;
50010;SDS011;35899;50.352;19.390;2022-12-04T06:15:10;35.95;;;15.98;;
50010;SDS011;35899;50.352;19.390;2022-12-04T06:17:36;36.10;;;14.85;;
50010;SDS011;35899;50.352;19.390;2022-12-04T06:20:03;41.02;;;16.45;;
50010;SDS011;35899;50.352;19.390;2022-12-04T06:22:31;38.55;;;16.37;;
50010;SDS011;35899;50.352;19.390;2022-12-04T06:24:57;39.33;;;15.18;;
50010;SDS011;35899;50.352;19.390;2022-12-04T06:27:23;41.53;;;15.90;;
50010;SDS011;35899;50.352;19.390;2022-12-04T06:29:50;40.33;;;16.62;;
50010;SDS011;35899;50.352;19.390;2022-12-04T06:32:16;39.00;;;16.07;;
50010;SDS011;35899;50.352;19.390;2022-12-04T06:34:42;38.83;;;15.53;;
50010;SDS011;35899;50.352;19.390;2022-12-04T06:37:09;37.73;;;16.00;;
50010;SDS011;35899;50.352;19.390;2022-12-04T06:39:35;40.52;;;16.20;;
50010;SDS011;35899;50.352;19.390;2022-12-04T06:42:02;38.23;;;15.70;;
50010;SDS011;35899;50.352;19.390;2022-12-04T06:44:28;42.88;;;16.23;;
50010;SDS011;35899;50.352;19.390;2022-12-04T06:46:55;40.15;;;16.37;;
50010;SDS011;35899;50.352;19.390;2022-12-04T06:49:21;40.70;;;15.88;;
50010;SDS011;35899;50.352;19.390;2022-12-04T06:51:47;37.40;;;15.20;;
50010;SDS011;35899;50.352;19.390;2022-12-04T06:54:14;36.50;;;16.20;;
50010;SDS011;35899;50.352;19.390;2022-12-04T06:56:40;38.95;;;16.45;;
50010;SDS011;35899;50.352;19.390;2022-12-04T06:59:06;35.88;;;15.15;;
50010;SDS011;35899;50.352;19.390;2022-12-04T07:01:34;32.03;;;14.30;;
50010;SDS011;35899;50.352;19.390;2022-12-04T07:04:00;40.43;;;16.62;;
50010;SDS011;35899;50.352;19.390;2022-12-04T07:06:34;42.55;;;16.70;;
50010;SDS011;35899;50.352;19.390;2022-12-04T07:09:06;38.58;;;15.48;;
50010;SDS011;35899;50.352;19.390;2022-12-04T07:11:40;35.70;;;14.45;;
50010;SDS011;35899;50.352;19.390;2022-12-04T07:14:07;35.98;;;15.32;;
50010;SDS011;35899;50.352;19.390;2022-12-04T07:16:35;32.67;;;14.20;;
50010;SDS011;35899;50.352;19.390;2022-12-04T07:19:03;38.08;;;15.32;;
50010;SDS011;35899;50.352;19.390;2022-12-04T07:21:30;36.90;;;14.75;;
50010;SDS011;35899;50.352;19.390;2022-12-04T07:23:57;36.28;;;15.83;;
50010;SDS011;35899;50.352;19.390;2022-12-04T07:26:26;33.33;;;15.15;;
50010;SDS011;35899;50.352;19.390;2022-12-04T07:28:54;33.38;;;15.30;;
50010;SDS011;35899;50.352;19.390;2022-12-04T07:31:22;36.70;;;15.23;;
50010;SDS011;35899;50.352;19.390;2022-12-04T07:33:50;38.78;;;15.45;;
50010;SDS011;35899;50.352;19.390;2022-12-04T07:36:17;32.53;;;14.40;;
50010;SDS011;35899;50.352;19.390;2022-12-04T07:38:45;36.55;;;15.23;;
50010;SDS011;35899;50.352;19.390;2022-12-04T07:41:11;31.55;;;14.83;;
50010;SDS011;35899;50.352;19.390;2022-12-04T07:43:38;33.80;;;14.68;;
50010;SDS011;35899;50.352;19.390;2022-12-04T07:46:06;41.23;;;16.52;;
50010;SDS011;35899;50.352;19.390;2022-12-04T07:48:39;33.88;;;14.43;;
50010;SDS011;35899;50.352;19.390;2022-12-04T07:51:07;36.00;;;15.28;;
50010;SDS011;35899;50.352;19.390;2022-12-04T07:53:37;36.80;;;15.53;;
50010;SDS011;35899;50.352;19.390;2022-12-04T07:56:04;31.60;;;14.38;;
50010;SDS011;35899;50.352;19.390;2022-12-04T07:58:31;31.95;;;13.88;;
50010;SDS011;35899;50.352;19.390;2022-12-04T08:03:41;35.88;;;14.78;;
50010;SDS011;35899;50.352;19.390;2022-12-04T08:06:10;40.05;;;15.95;;
50010;SDS011;35899;50.352;19.390;2022-12-04T08:08:37;31.25;;;14.68;;
50010;SDS011;35899;50.352;19.390;2022-12-04T08:11:04;36.00;;;15.32;;
50010;SDS011;35899;50.352;19.390;2022-12-04T08:13:33;32.55;;;14.23;;
50010;SDS011;35899;50.352;19.390;2022-12-04T08:16:03;35.75;;;16.00;;
50010;SDS011;35899;50.352;19.390;2022-12-04T08:18:32;33.85;;;15.25;;
50010;SDS011;35899;50.352;19.390;2022-12-04T08:21:02;31.48;;;14.73;;
50010;SDS011;35899;50.352;19.390;2022-12-04T08:23:36;33.30;;;15.13;;
50010;SDS011;35899;50.352;19.390;2022-12-04T08:26:04;37.88;;;15.43;;
50010;SDS011;35899;50.352;19.390;2022-12-04T08:28:31;34.95;;;16.17;;
50010;SDS011;35899;50.352;19.390;2022-12-04T08:31:02;30.00;;;14.28;;
50010;SDS011;35899;50.352;19.390;2022-12-04T08:33:35;42.40;;;16.57;;
50010;SDS011;35899;50.352;19.390;2022-12-04T08:36:04;39.15;;;16.37;;
50010;SDS011;35899;50.352;19.390;2022-12-04T08:38:36;41.20;;;17.20;;
50010;SDS011;35899;50.352;19.390;2022-12-04T08:41:04;39.95;;;16.40;;
50010;SDS011;35899;50.352;19.390;2022-12-04T08:43:32;40.08;;;16.37;;
50010;SDS011;35899;50.352;19.390;2022-12-04T08:45:59;36.83;;;16.05;;
50010;SDS011;35899;50.352;19.390;2022-12-04T08:48:29;39.33;;;15.90;;
50010;SDS011;35899;50.352;19.390;2022-12-04T08:50:56;37.60;;;16.87;;
50010;SDS011;35899;50.352;19.390;2022-12-04T08:53:22;40.30;;;16.50;;
50010;SDS011;35899;50.352;19.390;2022-12-04T08:55:50;39.30;;;16.02;;
50010;SDS011;35899;50.352;19.390;2022-12-04T08:58:17;41.35;;;17.65;;
50010;SDS011;35899;50.352;19.390;2022-12-04T09:00:44;38.70;;;16.37;;
50010;SDS011;35899;50.352;19.390;2022-12-04T09:03:15;36.73;;;17.50;;
50010;SDS011;35899;50.352;19.390;2022-12-04T09:05:43;35.98;;;16.73;;
50010;SDS011;35899;50.352;19.390;2022-12-04T09:08:10;37.20;;;16.73;;
50010;SDS011;35899;50.352;19.390;2022-12-04T09:10:41;37.42;;;16.93;;
50010;SDS011;35899;50.352;19.390;2022-12-04T09:13:08;36.68;;;16.85;;
50010;SDS011;35899;50.352;19.390;2022-12-04T09:15:38;36.63;;;17.12;;
50010;SDS011;35899;50.352;19.390;2022-12-04T09:18:05;35.98;;;16.82;;
50010;SDS011;35899;50.352;19.390;2022-12-04T09:20:33;34.23;;;15.43;;
50010;SDS011;35899;50.352;19.390;2022-12-04T09:23:00;32.03;;;14.87;;
50010;SDS011;35899;50.352;19.390;2022-12-04T09:25:27;32.65;;;16.42;;
50010;SDS011;35899;50.352;19.390;2022-12-04T09:27:54;35.48;;;16.07;;
50010;SDS011;35899;50.352;19.390;2022-12-04T09:30:20;35.05;;;15.58;;
50010;SDS011;35899;50.352;19.390;2022-12-04T09:32:47;37.05;;;16.85;;
50010;SDS011;35899;50.352;19.390;2022-12-04T09:35:13;34.35;;;15.58;;
50010;SDS011;35899;50.352;19.390;2022-12-04T09:37:40;32.00;;;15.90;;
50010;SDS011;35899;50.352;19.390;2022-12-04T09:40:10;30.95;;;14.98;;
50010;SDS011;35899;50.352;19.390;2022-12-04T09:43:01;32.67;;;15.58;;
50010;SDS011;35899;50.352;19.390;2022-12-04T09:45:45;33.53;;;15.88;;
50010;SDS011;35899;50.352;19.390;2022-12-04T09:48:15;33.63;;;16.00;;
50010;SDS011;35899;50.352;19.390;2022-12-04T09:50:44;36.50;;;17.00;;
50010;SDS011;35899;50.352;19.390;2022-12-04T09:53:14;35.33;;;17.10;;
50010;SDS011;35899;50.352;19.390;2022-12-04T10:01:27;31.70;;;15.70;;
50010;SDS011;35899;50.352;19.390;2022-12-04T10:04:00;29.30;;;15.95;;
50010;SDS011;35899;50.352;19.390;2022-12-04T10:06:32;33.35;;;16.65;;
50010;SDS011;35899;50.352;19.390;2022-12-04T10:09:09;31.33;;;15.60;;
50010;SDS011;35899;50.352;19.390;2022-12-04T10:25:44;32.85;;;16.32;;
50010;SDS011;35899;50.352;19.390;2022-12-04T10:31:09;33.15;;;15.68;;
50010;SDS011;35899;50.352;19.390;2022-12-04T10:36:31;31.65;;;15.83;;
50010;SDS011;35899;50.352;19.390;2022-12-04T10:39:09;30.12;;;15.00;;
50010;SDS011;35899;50.352;19.390;2022-12-04T10:42:00;31.15;;;16.85;;
50010;SDS011;35899;50.352;19.390;2022-12-04T10:44:47;30.70;;;16.15;;
50010;SDS011;35899;50.352;19.390;2022-12-04T10:47:14;33.80;;;16.20;;
50010;SDS011;35899;50.352;19.390;2022-12-04T10:49:40;32.58;;;16.62;;
50010;SDS011;35899;50.352;19.390;2022-12-04T10:52:10;32.95;;;16.65;;
50010;SDS011;35899;50.352;19.390;2022-12-04T10:54:54;31.80;;;16.50;;
50010;SDS011;35899;50.352;19.390;2022-12-04T10:57:39;34.43;;;16.57;;
50010;SDS011;35899;50.352;19.390;2022-12-04T11:03:24;32.10;;;16.57;;
50010;SDS011;35899;50.352;19.390;2022-12-04T11:05:52;34.43;;;17.07;;
50010;SDS011;35899;50.352;19.390;2022-12-04T11:08:33;32.33;;;16.55;;
50010;SDS011;35899;50.352;19.390;2022-12-04T11:11:09;34.88;;;17.85;;
50010;SDS011;35899;50.352;19.390;2022-12-04T11:13:40;33.40;;;16.40;;
50010;SDS011;35899;50.352;19.390;2022-12-04T11:16:08;34.08;;;16.60;;
50010;SDS011;35899;50.352;19.390;2022-12-04T11:18:55;31.93;;;16.17;;
50010;SDS011;35899;50.352;19.390;2022-12-04T11:21:22;33.33;;;16.25;;
50010;SDS011;35899;50.352;19.390;2022-12-04T11:23:53;34.18;;;17.55;;
50010;SDS011;35899;50.352;19.390;2022-12-04T11:26:30;32.60;;;17.48;;
50010;SDS011;35899;50.352;19.390;2022-12-04T11:29:00;35.23;;;17.57;;
50010;SDS011;35899;50.352;19.390;2022-12-04T11:31:28;33.53;;;16.67;;
50010;SDS011;35899;50.352;19.390;2022-12-04T11:33:58;34.70;;;17.57;;
50010;SDS011;35899;50.352;19.390;2022-12-04T11:39:13;39.10;;;19.10;;
50010;SDS011;35899;50.352;19.390;2022-12-04T11:41:42;38.70;;;18.55;;
50010;SDS011;35899;50.352;19.390;2022-12-04T11:44:23;33.10;;;16.70;;
50010;SDS011;35899;50.352;19.390;2022-12-04T11:46:57;35.70;;;17.77;;
50010;SDS011;35899;50.352;19.390;2022-12-04T11:49:26;36.58;;;18.12;;
50010;SDS011;35899;50.352;19.390;2022-12-04T11:52:14;39.35;;;18.80;;
50010;SDS011;35899;50.352;19.390;2022-12-04T11:55:01;39.48;;;19.48;;
50010;SDS011;35899;50.352;19.390;2022-12-04T11:57:57;40.73;;;20.35;;
50010;SDS011;35899;50.352;19.390;2022-12-04T12:00:24;36.17;;;18.75;;
50010;SDS011;35899;50.352;19.390;2022-12-04T12:19:47;37.40;;;17.50;;
50010;SDS011;35899;50.352;19.390;2022-12-04T12:34:07;47.33;;;22.82;;
50010;SDS011;35899;50.352;19.390;2022-12-04T12:38:31;46.13;;;22.07;;
50010;SDS011;35899;50.352;19.390;2022-12-04T12:41:18;46.92;;;20.72;;
50010;SDS011;35899;50.352;19.390;2022-12-04T12:43:59;48.23;;;21.35;;
50010;SDS011;35899;50.352;19.390;2022-12-04T12:46:54;47.05;;;21.80;;
50010;SDS011;35899;50.352;19.390;2022-12-04T12:49:34;45.10;;;20.30;;
50010;SDS011;35899;50.352;19.390;2022-12-04T12:55:13;48.92;;;21.95;;
50010;SDS011;35899;50.352;19.390;2022-12-04T12:58:09;46.92;;;21.52;;
50010;SDS011;35899;50.352;19.390;2022-12-04T13:00:59;49.10;;;20.82;;
50010;SDS011;35899;50.352;19.390;2022-12-04T13:06:13;52.48;;;23.98;;
50010;SDS011;35899;50.352;19.390;2022-12-04T13:11:44;48.75;;;21.75;;
50010;SDS011;35899;50.352;19.390;2022-12-04T13:14:13;46.37;;;21.48;;
50010;SDS011;35899;50.352;19.390;2022-12-04T13:16:43;48.55;;;22.52;;
50010;SDS011;35899;50.352;19.390;2022-12-04T13:19:24;47.20;;;22.07;;
50010;SDS011;35899;50.352;19.390;2022-12-04T13:25:09;52.30;;;21.82;;
50010;SDS011;35899;50.352;19.390;2022-12-04T13:42:15;49.05;;;22.13;;
50010;SDS011;35899;50.352;19.390;2022-12-04T13:44:55;47.90;;;20.65;;
50010;SDS011;35899;50.352;19.390;2022-12-04T13:47:28;46.65;;;21.90;;
50010;SDS011;35899;50.352;19.390;2022-12-04T13:50:20;56.98;;;23.30;;
50010;SDS011;35899;50.352;19.390;2022-12-04T13:52:54;54.27;;;23.07;;
50010;SDS011;35899;50.352;19.390;2022-12-04T14:00:39;61.83;;;24.15;;
50010;SDS011;35899;50.352;19.390;2022-12-04T14:05:54;63.75;;;24.87;;
50010;SDS011;35899;50.352;19.390;2022-12-04T14:08:23;57.27;;;24.10;;
50010;SDS011;35899;50.352;19.390;2022-12-04T14:11:00;60.12;;;23.38;;
50010;SDS011;35899;50.352;19.390;2022-12-04T14:13:56;63.35;;;26.15;;
50010;SDS011;35899;50.352;19.390;2022-12-04T14:16:22;62.08;;;27.35;;
50010;SDS011;35899;50.352;19.390;2022-12-04T14:18:57;59.88;;;23.85;;
50010;SDS011;35899;50.352;19.390;2022-12-04T14:21:36;70.57;;;26.70;;
50010;SDS011;35899;50.352;19.390;2022-12-04T14:24:25;67.92;;;25.55;;
50010;SDS011;35899;50.352;19.390;2022-12-04T14:26:47;69.47;;;26.65;;
50010;SDS011;35899;50.352;19.390;2022-12-04T14:29:27;61.83;;;24.75;;
50010;SDS011;35899;50.352;19.390;2022-12-04T14:32:13;65.35;;;26.12;;
50010;SDS011;35899;50.352;19.390;2022-12-04T14:34:44;68.90;;;26.02;;
50010;SDS011;35899;50.352;19.390;2022-12-04T14:37:16;69.20;;;26.35;;
50010;SDS011;35899;50.352;19.390;2022-12-04T14:40:01;70.70;;;26.17;;
50010;SDS011;35899;50.352;19.390;2022-12-04T14:42:32;69.75;;;27.87;;
50010;SDS011;35899;50.352;19.390;2022-12-04T14:53:50;74.97;;;27.98;;
50010;SDS011;35899;50.352;19.390;2022-12-04T14:57:01;75.65;;;28.77;;
50010;SDS011;35899;50.352;19.390;2022-12-04T14:59:43;76.80;;;28.87;;
50010;SDS011;35899;50.352;19.390;2022-12-04T15:02:17;72.75;;;28.57;;
50010;SDS011;35899;50.352;19.390;2022-12-04T15:05:01;72.30;;;26.48;;
50010;SDS011;35899;50.352;19.390;2022-12-04T15:07:34;74.20;;;27.90;;
50010;SDS011;35899;50.352;19.390;2022-12-04T15:10:01;71.05;;;27.45;;
50010;SDS011;35899;50.352;19.390;2022-12-04T15:12:51;68.07;;;26.82;;
50010;SDS011;35899;50.352;19.390;2022-12-04T15:15:21;75.60;;;27.95;;
50010;SDS011;35899;50.352;19.390;2022-12-04T15:18:08;76.85;;;29.60;;
50010;SDS011;35899;50.352;19.390;2022-12-04T15:25:59;75.22;;;28.98;;
50010;SDS011;35899;50.352;19.390;2022-12-04T15:31:19;70.20;;;27.30;;
50010;SDS011;35899;50.352;19.390;2022-12-04T15:33:46;73.55;;;29.40;;
50010;SDS011;35899;50.352;19.390;2022-12-04T15:36:23;71.45;;;28.98;;
50010;SDS011;35899;50.352;19.390;2022-12-04T15:39:08;69.37;;;29.55;;
50010;SDS011;35899;50.352;19.390;2022-12-04T15:41:46;73.87;;;29.72;;
50010;SDS011;35899;50.352;19.390;2022-12-04T15:44:23;70.95;;;29.60;;
50010;SDS011;35899;50.352;19.390;2022-12-04T15:46:57;73.57;;;30.48;;
50010;SDS011;35899;50.352;19.390;2022-12-04T15:49:27;71.05;;;29.77;;
50010;SDS011;35899;50.352;19.390;2022-12-04T15:52:04;69.27;;;28.92;;
50010;SDS011;35899;50.352;19.390;2022-12-04T15:54:34;65.67;;;28.38;;
50010;SDS011;35899;50.352;19.390;2022-12-04T15:57:03;64.70;;;27.87;;
50010;SDS011;35899;50.352;19.390;2022-12-04T15:59:33;69.50;;;28.38;;
50010;SDS011;35899;50.352;19.390;2022-12-04T16:02:18;70.20;;;28.57;;
50010;SDS011;35899;50.352;19.390;2022-12-04T16:04:48;75.32;;;29.37;;
50010;SDS011;35899;50.352;19.390;2022-12-04T16:07:22;69.17;;;28.85;;
50010;SDS011;35899;50.352;19.390;2022-12-04T16:09:58;62.60;;;28.12;;
50010;SDS011;35899;50.352;19.390;2022-12-04T16:12:27;64.47;;;27.15;;
50010;SDS011;35899;50.352;19.390;2022-12-04T16:14:57;56.90;;;24.87;;
50010;SDS011;35899;50.352;19.390;2022-12-04T16:17:27;58.78;;;25.50;;
50010;SDS011;35899;50.352;19.390;2022-12-04T16:20:03;57.03;;;25.57;;
50010;SDS011;35899;50.352;19.390;2022-12-04T16:22:27;57.08;;;23.92;;
50010;SDS011;35899;50.352;19.390;2022-12-04T16:24:54;56.08;;;24.35;;
50010;SDS011;35899;50.352;19.390;2022-12-04T16:27:21;51.08;;;22.52;;
50010;SDS011;35899;50.352;19.390;2022-12-04T16:29:49;53.95;;;24.27;;
50010;SDS011;35899;50.352;19.390;2022-12-04T16:32:23;61.55;;;26.82;;
50010;SDS011;35899;50.352;19.390;2022-12-04T16:34:47;58.90;;;25.20;;
50010;SDS011;35899;50.352;19.390;2022-12-04T16:37:18;57.20;;;25.57;;
50010;SDS011;35899;50.352;19.390;2022-12-04T16:39:44;61.50;;;25.60;;
50010;SDS011;35899;50.352;19.390;2022-12-04T16:42:23;59.35;;;24.87;;
50010;SDS011;35899;50.352;19.390;2022-12-04T16:44:48;59.42;;;26.40;;
50010;SDS011;35899;50.352;19.390;2022-12-04T16:47:15;61.10;;;26.02;;
50010;SDS011;35899;50.352;19.390;2022-12-04T16:49:43;56.08;;;24.23;;
50010;SDS011;35899;50.352;19.390;2022-12-04T16:52:12;54.55;;;24.72;;
50010;SDS011;35899;50.352;19.390;2022-12-04T16:54:39;59.00;;;25.95;;
50010;SDS011;35899;50.352;19.390;2022-12-04T16:57:06;58.35;;;23.62;;
50010;SDS011;35899;50.352;19.390;2022-12-04T16:59:35;57.40;;;25.08;;
50010;SDS011;35899;50.352;19.390;2022-12-04T17:02:03;59.20;;;25.52;;